Time;durP1;ratioP1;P1;durP2;ratioP2;P2;SDS_P1;SDS_P2;PMS_P1;PMS_P2;Temp;Humidity;BMP_temperature;BMP_pressure;BME280_temperature;BME280_humidity;BME280_pressure;Samples;Min_cycle;Max_cycle;Signal;HPM_P1;HPM_P2
2021/12/23 00:00:17;;;;;;;26.95;11.02;;;1.90;64.90;;;;;;5070121;28;20256;-82
2021/12/23 00:02:46;;;;;;;20.83;11.70;;;1.90;62.30;;;;;;5060035;28;20216;-83
2021/12/23 00:05:15;;;;;;;22.92;11.05;;;1.80;62.70;;;;;;5062122;28;20689;-83
2021/12/23 00:07:43;;;;;;;25.70;11.88;;;2.10;61.90;;;;;;5067887;28;20221;-84
2021/12/23 00:10:11;;;;;;;20.80;10.65;;;1.80;62.80;;;;;;5076620;28;20218;-83
2021/12/23 00:12:43;;;;;;;22.50;11.50;;;1.80;60.00;;;;;;5062527;28;20219;-83
2021/12/23 00:15:23;;;;;;;30.20;14.38;;;1.80;59.20;;;;;;5061539;28;20213;-84
2021/12/23 00:17:59;;;;;;;14.70;8.40;;;1.70;60.30;;;;;;5063052;28;20205;-84
2021/12/23 00:23:25;;;;;;;16.95;8.35;;;1.40;58.00;;;;;;5062191;28;20219;-82
2021/12/23 00:26:00;;;;;;;25.40;13.48;;;1.30;59.10;;;;;;5066743;28;20217;-84
2021/12/23 00:28:29;;;;;;;28.08;10.48;;;1.40;60.70;;;;;;5065877;28;20215;-82
2021/12/23 00:30:59;;;;;;;22.30;9.75;;;1.40;59.30;;;;;;5064023;28;20256;-83
2021/12/23 00:33:30;;;;;;;18.55;10.43;;;1.20;60.00;;;;;;5076411;28;20679;-84
2021/12/23 00:35:59;;;;;;;18.23;9.88;;;1.50;62.60;;;;;;5042510;28;20213;-82
2021/12/23 00:38:31;;;;;;;22.90;11.15;;;1.30;63.80;;;;;;5059549;28;20195;-82
2021/12/23 00:41:01;;;;;;;23.35;9.00;;;1.60;63.60;;;;;;5060754;28;20242;-84
2021/12/23 00:43:30;;;;;;;20.27;10.88;;;1.50;63.20;;;;;;5066312;28;20205;-80
2021/12/23 00:45:59;;;;;;;20.67;9.70;;;1.40;61.80;;;;;;5067431;28;20208;-83
2021/12/23 00:48:29;;;;;;;26.23;10.20;;;1.40;60.70;;;;;;5064539;28;20261;-83
2021/12/23 00:50:57;;;;;;;17.70;8.45;;;1.70;63.90;;;;;;5072198;28;20233;-83
2021/12/23 00:53:27;;;;;;;17.45;7.93;;;1.80;64.00;;;;;;5069638;28;20250;-81
2021/12/23 00:55:55;;;;;;;23.65;9.90;;;1.70;63.20;;;;;;5066660;28;20206;-81
2021/12/23 00:58:24;;;;;;;22.45;10.48;;;1.80;65.10;;;;;;5063670;28;20280;-81
2021/12/23 01:00:53;;;;;;;24.05;11.70;;;1.70;61.10;;;;;;5068977;28;20229;-82
2021/12/23 01:03:22;;;;;;;20.60;9.40;;;1.80;63.90;;;;;;5068976;28;20645;-82
2021/12/23 01:05:51;;;;;;;21.33;10.95;;;1.70;61.70;;;;;;5063620;28;20237;-81
2021/12/23 01:08:20;;;;;;;16.90;9.02;;;1.60;60.20;;;;;;5062834;28;20292;-80
2021/12/23 01:10:52;;;;;;;22.88;8.57;;;1.70;62.50;;;;;;5060527;28;20227;-82
2021/12/23 01:13:25;;;;;;;19.02;10.93;;;1.80;58.70;;;;;;5072758;28;20207;-82
2021/12/23 01:16:03;;;;;;;22.48;10.85;;;1.90;61.80;;;;;;5062524;28;20202;-82
2021/12/23 01:18:37;;;;;;;16.98;10.25;;;2.00;61.70;;;;;;5059970;28;20289;-81
2021/12/23 01:21:16;;;;;;;21.95;10.45;;;1.60;58.50;;;;;;5062399;28;20773;-82
2021/12/23 01:23:47;;;;;;;19.73;11.35;;;1.70;62.70;;;;;;5047136;28;20205;-84
2021/12/23 01:26:18;;;;;;;19.63;10.52;;;2.00;59.30;;;;;;5059491;28;20217;-82
2021/12/23 01:28:48;;;;;;;22.02;10.82;;;1.70;60.10;;;;;;5071882;28;20680;-82
2021/12/23 01:31:16;;;;;;;17.70;8.88;;;2.00;58.50;;;;;;5072098;28;20229;-80
2021/12/23 01:33:45;;;;;;;23.92;11.25;;;1.70;60.00;;;;;;5064649;28;20209;-80
2021/12/23 01:36:16;;;;;;;21.70;10.90;;;1.80;59.50;;;;;;5069385;28;20666;-80
2021/12/23 01:38:44;;;;;;;20.17;8.80;;;1.50;58.60;;;;;;5068990;28;20207;-81
2021/12/23 01:41:13;;;;;;;20.55;10.73;;;1.40;59.10;;;;;;5057915;28;20254;-79
2021/12/23 01:43:42;;;;;;;20.00;8.90;;;1.40;57.20;;;;;;5065368;28;20229;-82
2021/12/23 01:46:14;;;;;;;16.63;8.55;;;1.30;60.60;;;;;;5070618;28;20213;-81
2021/12/23 01:48:43;;;;;;;26.60;12.35;;;1.50;63.50;;;;;;5061359;28;20198;-82
2021/12/23 01:51:11;;;;;;;16.85;9.32;;;1.60;63.30;;;;;;5068558;28;20287;-82
2021/12/23 01:53:42;;;;;;;20.27;9.18;;;1.80;61.70;;;;;;5061318;28;20340;-80
2021/12/23 01:56:10;;;;;;;22.27;11.85;;;1.80;61.00;;;;;;5064011;28;20286;-82
2021/12/23 01:58:39;;;;;;;21.08;9.77;;;1.70;60.20;;;;;;5062447;28;20589;-82
2021/12/23 02:01:08;;;;;;;26.25;10.55;;;2.00;61.00;;;;;;5069792;28;20652;-81
2021/12/23 02:03:37;;;;;;;23.60;11.32;;;1.70;59.60;;;;;;5063012;28;20617;-82
2021/12/23 02:06:05;;;;;;;23.15;11.82;;;1.70;59.90;;;;;;5051755;28;20206;-80
2021/12/23 02:08:35;;;;;;;26.75;11.23;;;1.70;61.30;;;;;;5065563;28;20215;-81
2021/12/23 02:11:06;;;;;;;29.67;11.52;;;1.60;59.90;;;;;;5060094;28;20232;-82
2021/12/23 02:13:35;;;;;;;27.70;10.98;;;1.60;60.00;;;;;;5064982;28;20213;-82
2021/12/23 02:16:04;;;;;;;22.48;10.75;;;1.70;60.40;;;;;;5047246;28;20211;-82
2021/12/23 02:18:32;;;;;;;22.15;10.20;;;1.60;57.80;;;;;;5059717;28;20211;-82
2021/12/23 02:21:05;;;;;;;26.90;11.52;;;1.40;58.50;;;;;;5063675;28;20319;-82
2021/12/23 02:23:34;;;;;;;17.77;8.70;;;1.30;56.80;;;;;;5068976;28;20571;-81
2021/12/23 02:26:03;;;;;;;18.48;8.68;;;1.30;57.10;;;;;;5063944;28;20222;-83
2021/12/23 02:28:32;;;;;;;25.23;9.43;;;1.50;59.30;;;;;;5060715;28;20555;-81
2021/12/23 02:31:00;;;;;;;17.17;9.73;;;1.60;60.90;;;;;;5065050;28;20229;-82
2021/12/23 02:33:29;;;;;;;21.42;9.25;;;1.00;58.70;;;;;;5065795;28;20199;-82
2021/12/23 02:35:59;;;;;;;19.23;9.57;;;0.80;59.10;;;;;;5060046;28;20201;-80
2021/12/23 02:38:28;;;;;;;18.65;9.60;;;0.80;63.10;;;;;;5070222;28;20202;-81
2021/12/23 02:40:57;;;;;;;18.58;9.73;;;1.00;69.50;;;;;;5060902;28;20240;-82
2021/12/23 02:43:30;;;;;;;18.65;10.48;;;1.40;68.80;;;;;;5057505;28;20263;-83
2021/12/23 02:46:00;;;;;;;22.00;9.65;;;1.30;66.80;;;;;;5069977;28;20216;-80
2021/12/23 02:48:32;;;;;;;24.40;9.77;;;1.50;64.70;;;;;;5066599;28;20251;-79
2021/12/23 02:51:01;;;;;;;20.90;9.95;;;1.40;62.90;;;;;;5059132;28;20253;-79
2021/12/23 02:53:31;;;;;;;20.52;10.30;;;1.50;67.00;;;;;;5060256;28;20651;-82
2021/12/23 02:56:02;;;;;;;19.02;9.73;;;1.60;66.30;;;;;;5060240;28;20663;-82
2021/12/23 02:58:30;;;;;;;17.95;8.88;;;1.70;65.10;;;;;;5067388;28;20575;-81
2021/12/23 03:01:00;;;;;;;16.52;9.18;;;1.80;63.40;;;;;;5060142;28;20217;-79
2021/12/23 03:03:28;;;;;;;18.63;9.65;;;1.80;63.50;;;;;;5060212;28;21000;-81
2021/12/23 03:05:58;;;;;;;13.95;8.15;;;1.80;64.80;;;;;;5060568;28;20264;-82
2021/12/23 03:08:32;;;;;;;20.23;11.15;;;1.80;62.80;;;;;;5064385;28;20282;-82
2021/12/23 03:11:01;;;;;;;20.27;10.32;;;1.80;61.70;;;;;;5064436;28;20223;-81
2021/12/23 03:13:29;;;;;;;18.65;10.75;;;1.80;62.20;;;;;;5060819;28;20210;-80
2021/12/23 03:15:58;;;;;;;19.55;8.02;;;2.10;63.60;;;;;;5067610;28;20589;-82
2021/12/23 03:18:27;;;;;;;20.80;11.05;;;2.00;62.60;;;;;;5056655;28;20297;-81
2021/12/23 03:20:56;;;;;;;22.33;10.90;;;1.80;62.10;;;;;;5059046;28;20223;-82
2021/12/23 03:23:25;;;;;;;18.60;10.25;;;1.80;61.30;;;;;;5062535;28;20209;-82
2021/12/23 03:25:55;;;;;;;25.27;9.98;;;1.90;61.90;;;;;;5042640;28;20225;-82
2021/12/23 03:28:23;;;;;;;15.45;8.10;;;1.80;62.50;;;;;;5051223;28;20202;-81
2021/12/23 03:30:51;;;;;;;25.05;10.90;;;1.90;63.80;;;;;;5062758;28;20300;-80
2021/12/23 03:33:20;;;;;;;21.42;9.57;;;1.90;64.10;;;;;;5063616;28;20241;-80
2021/12/23 03:35:49;;;;;;;19.35;9.80;;;1.90;61.20;;;;;;5066197;28;20208;-79
2021/12/23 03:38:17;;;;;;;17.75;10.63;;;2.00;61.80;;;;;;5066711;28;20612;-78
2021/12/23 03:40:47;;;;;;;16.85;7.95;;;2.00;61.90;;;;;;5071170;28;20228;-82
2021/12/23 03:43:17;;;;;;;19.65;10.00;;;2.30;59.10;;;;;;5045018;28;20210;-80
2021/12/23 03:45:47;;;;;;;16.65;9.93;;;1.70;57.70;;;;;;5071414;28;20486;-80
2021/12/23 03:48:17;;;;;;;17.48;9.02;;;1.80;58.70;;;;;;5063686;28;20235;-79
2021/12/23 03:50:46;;;;;;;14.45;9.55;;;1.80;60.00;;;;;;5064676;28;20289;-81
2021/12/23 03:53:14;;;;;;;19.75;8.75;;;1.80;59.20;;;;;;5057517;28;20204;-81
2021/12/23 03:55:43;;;;;;;17.65;9.05;;;1.70;58.40;;;;;;5071113;28;20911;-81
2021/12/23 03:58:11;;;;;;;16.95;8.35;;;1.50;60.60;;;;;;5065487;28;20204;-82
2021/12/23 04:00:42;;;;;;;23.23;10.98;;;1.60;60.00;;;;;;5063026;28;20321;-81
2021/12/23 04:03:11;;;;;;;14.10;8.30;;;1.60;59.10;;;;;;5060313;28;20221;-82
2021/12/23 04:05:39;;;;;;;24.88;9.45;;;1.40;55.60;;;;;;5062455;28;20685;-79
2021/12/23 04:08:08;;;;;;;16.20;7.80;;;1.50;59.10;;;;;;5054003;28;20200;-82
2021/12/23 04:10:37;;;;;;;24.63;10.68;;;1.20;58.60;;;;;;5065033;28;20226;-81
2021/12/23 04:13:05;;;;;;;21.15;9.13;;;1.30;59.40;;;;;;5073917;28;20203;-81
2021/12/23 04:15:33;;;;;;;15.93;7.82;;;1.20;60.80;;;;;;5056553;28;20214;-80
2021/12/23 04:18:03;;;;;;;15.88;9.43;;;1.40;64.60;;;;;;5075277;28;20455;-80
2021/12/23 04:20:35;;;;;;;15.57;8.52;;;1.60;65.30;;;;;;5070377;28;20258;-83
2021/12/23 04:23:04;;;;;;;21.42;9.77;;;1.90;63.00;;;;;;5069273;28;20208;-81
2021/12/23 04:25:32;;;;;;;17.48;8.15;;;1.70;59.40;;;;;;5062871;28;20215;-79
2021/12/23 04:28:02;;;;;;;13.68;7.80;;;1.40;58.40;;;;;;5062365;28;20214;-81
2021/12/23 04:30:31;;;;;;;15.38;8.35;;;1.50;60.70;;;;;;5059339;28;20233;-81
2021/12/23 04:32:59;;;;;;;16.80;9.23;;;1.60;64.00;;;;;;5070362;28;20279;-81
2021/12/23 04:35:29;;;;;;;13.85;8.13;;;1.80;82.70;;;;;;5065457;28;20216;-78
2021/12/23 04:37:57;;;;;;;16.77;7.57;;;1.90;62.00;;;;;;5073721;28;20199;-85
2021/12/23 04:40:26;;;;;;;21.30;8.05;;;2.10;62.90;;;;;;5060105;28;20270;-81
2021/12/23 04:42:54;;;;;;;16.95;8.48;;;1.80;60.60;;;;;;5073687;28;20216;-81
2021/12/23 04:45:22;;;;;;;20.15;8.55;;;1.70;61.00;;;;;;5071150;28;20203;-80
2021/12/23 04:47:50;;;;;;;20.10;8.88;;;1.80;61.90;;;;;;5070960;28;20213;-80
2021/12/23 04:50:18;;;;;;;13.68;9.20;;;1.90;63.20;;;;;;5050676;28;20218;-80
2021/12/23 04:52:48;;;;;;;15.50;7.18;;;1.90;61.80;;;;;;5066561;28;20211;-80
2021/12/23 04:55:17;;;;;;;17.67;9.00;;;2.00;61.70;;;;;;5069037;28;20207;-80
2021/12/23 04:57:45;;;;;;;17.27;9.18;;;1.90;61.70;;;;;;5073847;28;20206;-80
2021/12/23 05:00:16;;;;;;;19.98;9.23;;;2.20;62.10;;;;;;5077918;28;20227;-79
2021/12/23 05:02:45;;;;;;;14.60;8.95;;;2.10;62.40;;;;;;5065422;28;20254;-80
2021/12/23 05:05:13;;;;;;;16.55;9.25;;;2.10;61.30;;;;;;5054492;28;20207;-81
2021/12/23 05:07:41;;;;;;;15.05;8.10;;;1.80;58.20;;;;;;5063847;28;20212;-82
2021/12/23 05:10:13;;;;;;;21.23;8.02;;;1.70;59.20;;;;;;5064836;28;20968;-81
2021/12/23 05:12:44;;;;;;;14.77;7.30;;;1.80;60.40;;;;;;5060467;28;20219;-81
2021/12/23 05:15:15;;;;;;;17.45;8.60;;;1.70;62.70;;;;;;5068312;28;20201;-80
2021/12/23 05:17:44;;;;;;;18.35;9.25;;;1.70;62.60;;;;;;5066245;28;20212;-80
2021/12/23 05:20:14;;;;;;;17.90;9.52;;;1.40;59.80;;;;;;5063912;28;20229;-80
2021/12/23 05:22:42;;;;;;;22.25;9.35;;;1.30;62.40;;;;;;5058399;28;20230;-81
2021/12/23 05:25:13;;;;;;;17.27;7.97;;;1.60;66.80;;;;;;5062874;28;20724;-82
2021/12/23 05:27:41;;;;;;;15.85;8.98;;;1.70;65.70;;;;;;5062970;28;20214;-81
2021/12/23 05:30:13;;;;;;;17.85;8.75;;;1.90;65.50;;;;;;5062244;28;20331;-82
2021/12/23 05:32:43;;;;;;;17.38;9.30;;;1.70;67.50;;;;;;5059989;28;20193;-78
2021/12/23 05:35:13;;;;;;;14.15;7.65;;;1.90;70.50;;;;;;5065524;28;20995;-81
2021/12/23 05:37:42;;;;;;;18.38;8.80;;;2.10;70.20;;;;;;5063709;28;20201;-78
2021/12/23 05:40:16;;;;;;;18.50;9.00;;;2.20;70.70;;;;;;5073115;28;20622;-80
2021/12/23 05:42:45;;;;;;;19.13;7.65;;;2.20;69.50;;;;;;5063421;28;20221;-81
2021/12/23 05:45:14;;;;;;;18.25;9.93;;;2.60;69.20;;;;;;5043458;28;20216;-81
2021/12/23 05:47:43;;;;;;;18.17;8.20;;;2.30;66.50;;;;;;5054156;28;20207;-81
2021/12/23 05:50:14;;;;;;;18.15;9.30;;;2.20;64.80;;;;;;5060167;28;20779;-81
2021/12/23 05:52:42;;;;;;;20.13;9.48;;;2.20;64.70;;;;;;5057449;28;20215;-80
2021/12/23 05:55:12;;;;;;;21.33;9.63;;;2.20;62.40;;;;;;5062634;28;20202;-82
2021/12/23 05:57:42;;;;;;;15.98;8.15;;;2.10;62.20;;;;;;5058838;28;20205;-81
2021/12/23 06:00:13;;;;;;;18.50;8.98;;;2.10;61.80;;;;;;5056551;28;20226;-82
2021/12/23 06:02:42;;;;;;;21.85;10.10;;;2.10;62.30;;;;;;5056809;28;20744;-81
2021/12/23 06:05:11;;;;;;;16.55;9.70;;;2.00;60.40;;;;;;5039020;28;20204;-81
2021/12/23 06:07:40;;;;;;;20.63;8.98;;;2.00;59.30;;;;;;5061116;28;20626;-81
2021/12/23 06:10:09;;;;;;;21.20;8.80;;;2.20;62.60;;;;;;5071363;28;20229;-81
2021/12/23 06:12:38;;;;;;;22.75;9.02;;;2.10;63.50;;;;;;5061519;28;21134;-80
2021/12/23 06:15:08;;;;;;;20.45;8.68;;;2.30;66.80;;;;;;5065988;28;20213;-79
2021/12/23 06:17:37;;;;;;;12.35;7.35;;;2.10;63.60;;;;;;5060852;28;21074;-81
2021/12/23 06:20:07;;;;;;;15.13;7.78;;;2.30;65.10;;;;;;5056880;28;20200;-81
2021/12/23 06:22:37;;;;;;;13.32;6.70;;;2.30;64.80;;;;;;5055939;28;20226;-82
2021/12/23 06:25:07;;;;;;;15.00;7.22;;;2.40;65.40;;;;;;5057636;28;20619;-82
2021/12/23 06:27:36;;;;;;;17.27;8.75;;;2.40;65.00;;;;;;5056183;28;20200;-80
2021/12/23 06:30:15;;;;;;;16.17;7.30;;;2.40;66.90;;;;;;5056533;28;20208;-82
2021/12/23 06:32:43;;;;;;;22.67;8.43;;;2.50;66.60;;;;;;5061781;28;20202;-81
2021/12/23 06:35:13;;;;;;;15.55;7.47;;;2.40;64.60;;;;;;5062906;28;20673;-81
2021/12/23 06:37:42;;;;;;;15.95;7.50;;;2.40;66.70;;;;;;5054367;28;20216;-82
2021/12/23 06:40:12;;;;;;;17.63;8.05;;;2.50;68.10;;;;;;5043367;28;20233;-78
2021/12/23 06:42:40;;;;;;;19.27;9.25;;;2.50;67.60;;;;;;5057775;28;20225;-80
2021/12/23 06:45:10;;;;;;;16.60;10.13;;;2.50;67.40;;;;;;5072209;28;20564;-79
2021/12/23 06:47:39;;;;;;;18.35;10.00;;;2.50;67.70;;;;;;5061178;28;20221;-79
2021/12/23 06:50:10;;;;;;;20.33;10.23;;;2.30;65.30;;;;;;5055778;28;20229;-78
2021/12/23 06:52:39;;;;;;;18.90;9.52;;;2.40;69.00;;;;;;5057963;28;20206;-79
2021/12/23 06:55:10;;;;;;;28.45;10.77;;;2.50;67.80;;;;;;5053110;28;20206;-80
2021/12/23 06:57:39;;;;;;;17.65;9.13;;;2.50;68.30;;;;;;5058233;28;20207;-80
2021/12/23 07:00:13;;;;;;;17.48;8.13;;;2.50;71.50;;;;;;5055449;28;20291;-81
2021/12/23 07:02:43;;;;;;;16.58;8.52;;;2.60;69.80;;;;;;5058032;28;20221;-80
2021/12/23 07:05:12;;;;;;;21.10;9.38;;;2.60;69.00;;;;;;5055412;28;20198;-82
2021/12/23 07:07:52;;;;;;;19.00;8.30;;;2.70;70.00;;;;;;5053230;28;20214;-81
2021/12/23 07:10:21;;;;;;;16.40;8.80;;;2.50;69.70;;;;;;5037137;28;20452;-79
2021/12/23 07:12:50;;;;;;;16.20;9.75;;;2.50;69.20;;;;;;5057747;28;20846;-78
2021/12/23 07:15:19;;;;;;;14.25;7.65;;;2.40;67.70;;;;;;5053197;28;20839;-80
2021/12/23 07:17:48;;;;;;;22.60;8.27;;;2.40;70.50;;;;;;5055723;28;20225;-79
2021/12/23 07:20:16;;;;;;;18.58;9.85;;;2.70;73.20;;;;;;5069245;28;20444;-80
2021/12/23 07:22:45;;;;;;;19.15;8.27;;;2.50;74.40;;;;;;5065267;28;20647;-80
2021/12/23 07:25:14;;;;;;;16.38;7.45;;;2.70;75.30;;;;;;5062902;28;20204;-79
2021/12/23 07:27:42;;;;;;;17.15;9.73;;;2.60;74.30;;;;;;5054610;28;20201;-78
2021/12/23 07:30:13;;;;;;;12.63;6.35;;;2.60;75.00;;;;;;5055920;28;20224;-78
2021/12/23 07:32:43;;;;;;;12.73;7.05;;;2.60;73.50;;;;;;5062049;28;20204;-79
2021/12/23 07:35:12;;;;;;;20.52;8.93;;;2.60;75.30;;;;;;5060286;28;20965;-79
2021/12/23 07:37:43;;;;;;;14.65;7.05;;;2.70;75.50;;;;;;5073179;28;20208;-80
2021/12/23 07:40:15;;;;;;;12.85;7.53;;;2.70;72.30;;;;;;5069257;28;20236;-80
2021/12/23 07:42:53;;;;;;;15.93;7.93;;;2.60;74.60;;;;;;5064608;28;20218;-80
2021/12/23 07:45:22;;;;;;;11.65;6.78;;;2.70;76.40;;;;;;5069272;28;21023;-79
2021/12/23 07:47:52;;;;;;;22.13;9.90;;;2.70;76.00;;;;;;5080885;28;20194;-80
2021/12/23 07:50:20;;;;;;;16.27;7.65;;;2.80;78.40;;;;;;5046235;28;20603;-79
2021/12/23 07:52:49;;;;;;;17.05;7.55;;;2.80;88.30;;;;;;5053416;28;20211;-78
2021/12/23 07:55:17;;;;;;;15.35;9.40;;;2.90;77.20;;;;;;5055229;28;20217;-79
2021/12/23 07:57:45;;;;;;;15.85;7.40;;;2.80;75.40;;;;;;5038748;28;20263;-80
2021/12/23 08:00:16;;;;;;;14.25;8.35;;;2.90;76.30;;;;;;5059253;28;20781;-79
2021/12/23 08:02:44;;;;;;;15.43;6.85;;;2.90;77.90;;;;;;5061916;28;20228;-79
2021/12/23 08:05:15;;;;;;;14.85;7.90;;;2.90;76.70;;;;;;5056579;28;20228;-79
2021/12/23 08:07:43;;;;;;;8.85;6.90;;;2.80;76.00;;;;;;5057473;28;20212;-78
2021/12/23 08:10:12;;;;;;;16.35;8.32;;;2.80;75.00;;;;;;5059862;28;20724;-68
2021/12/23 08:12:40;;;;;;;10.48;5.63;;;3.00;73.90;;;;;;5057916;28;20208;-79
2021/12/23 08:15:09;;;;;;;13.05;7.32;;;2.40;76.50;;;;;;5053901;28;20274;-79
2021/12/23 08:17:38;;;;;;;16.15;6.15;;;2.60;78.80;;;;;;5055463;28;20210;-78
2021/12/23 08:20:10;;;;;;;16.90;7.82;;;2.80;80.10;;;;;;5060464;28;20231;-79
2021/12/23 08:22:40;;;;;;;19.88;7.78;;;2.90;81.90;;;;;;5053706;28;20750;-78
2021/12/23 08:25:09;;;;;;;17.10;7.53;;;3.00;81.70;;;;;;5057292;28;20336;-79
2021/12/23 08:27:38;;;;;;;13.50;6.13;;;3.10;84.30;;;;;;5050209;28;20197;-78
2021/12/23 08:30:09;;;;;;;15.40;6.85;;;3.10;83.80;;;;;;5063255;28;20202;-79
2021/12/23 08:32:37;;;;;;;13.27;6.72;;;3.10;82.50;;;;;;5057947;28;20274;-78
2021/12/23 08:35:06;;;;;;;12.05;7.63;;;3.10;84.40;;;;;;5061103;28;20279;-80
2021/12/23 08:37:35;;;;;;;10.65;6.30;;;3.20;86.60;;;;;;5044375;28;20234;-81
2021/12/23 08:40:07;;;;;;;10.07;6.53;;;3.40;85.40;;;;;;5069909;28;20275;-80
2021/12/23 08:42:36;;;;;;;9.90;6.43;;;3.30;89.00;;;;;;5057596;28;20209;-79
2021/12/23 08:45:07;;;;;;;14.48;6.78;;;3.40;89.70;;;;;;5063603;28;20204;-79
2021/12/23 08:47:35;;;;;;;16.50;7.10;;;3.40;90.80;;;;;;5066471;28;20212;-80
2021/12/23 08:50:06;;;;;;;13.15;7.10;;;3.50;90.40;;;;;;5062981;28;20207;-79
2021/12/23 08:52:34;;;;;;;18.02;7.35;;;3.40;91.70;;;;;;5046257;28;20291;-78
2021/12/23 08:55:06;;;;;;;15.30;7.07;;;3.50;93.90;;;;;;5068428;28;20201;-78
2021/12/23 08:57:35;;;;;;;10.85;6.15;;;3.50;93.50;;;;;;5068963;28;20197;-79
2021/12/23 09:00:05;;;;;;;16.20;9.02;;;3.40;94.20;;;;;;5066628;28;20448;-78
2021/12/23 09:02:33;;;;;;;13.30;7.30;;;3.50;94.20;;;;;;5067442;28;20208;-78
2021/12/23 09:05:02;;;;;;;13.98;6.82;;;3.70;94.70;;;;;;5063371;28;20869;-79
2021/12/23 09:07:30;;;;;;;16.43;9.70;;;4.10;94.80;;;;;;5062891;28;20463;-78
2021/12/23 09:09:58;;;;;;;14.50;8.40;;;3.90;94.40;;;;;;5056348;28;20999;-79
2021/12/23 09:12:28;;;;;;;11.98;7.25;;;4.00;94.60;;;;;;5067525;28;20202;-79
2021/12/23 09:14:56;;;;;;;8.40;6.15;;;4.10;94.70;;;;;;5068572;28;20209;-79
2021/12/23 09:17:25;;;;;;;16.50;7.22;;;4.10;96.90;;;;;;5062187;28;20214;-79
2021/12/23 09:19:53;;;;;;;15.48;7.32;;;4.20;99.90;;;;;;5062648;28;20206;-80
2021/12/23 09:22:21;;;;;;;11.20;6.60;;;4.20;96.40;;;;;;5066595;28;20212;-79
2021/12/23 09:24:52;;;;;;;14.52;6.32;;;4.30;96.10;;;;;;5045585;28;20227;-79
2021/12/23 09:27:29;;;;;;;13.20;6.72;;;4.20;95.00;;;;;;5067106;28;21059;-76
2021/12/23 09:32:54;;;;;;;10.43;5.70;;;4.40;99.10;;;;;;5056537;28;20206;-77
2021/12/23 09:35:43;;;;;;;9.52;5.25;;;4.30;99.50;;;;;;5070447;28;20678;-77
2021/12/23 09:38:11;;;;;;;6.63;4.30;;;4.50;99.90;;;;;;5065293;28;20273;-77
2021/12/23 09:40:41;;;;;;;11.07;5.10;;;4.50;99.90;;;;;;5061994;28;20730;-77
2021/12/23 09:43:12;;;;;;;9.85;4.60;;;4.10;99.90;;;;;;5062632;28;20365;-78
2021/12/23 09:45:43;;;;;;;7.15;4.85;;;4.20;99.90;;;;;;5060848;28;20213;-79
2021/12/23 09:48:12;;;;;;;9.60;5.60;;;4.30;99.90;;;;;;5063610;28;20606;-78
2021/12/23 09:50:41;;;;;;;15.98;5.63;;;4.30;99.90;;;;;;5055433;28;20635;-77
2021/12/23 09:53:11;;;;;;;11.57;4.68;;;4.40;99.90;;;;;;5054323;28;20206;-77
2021/12/23 09:55:39;;;;;;;4.53;3.30;;;4.40;99.90;;;;;;5050415;28;20218;-78
2021/12/23 09:58:08;;;;;;;8.00;4.75;;;4.40;99.90;;;;;;5054651;28;20204;-77
2021/12/23 10:00:42;;;;;;;4.88;3.67;;;4.60;99.90;;;;;;5053716;28;20243;-78
2021/12/23 10:03:12;;;;;;;4.80;3.47;;;4.40;99.90;;;;;;5052368;28;20938;-78
2021/12/23 10:05:40;;;;;;;7.82;4.43;;;4.40;99.90;;;;;;5053374;28;20224;-78
2021/12/23 10:08:11;;;;;;;5.97;3.40;;;4.50;99.90;;;;;;5050255;28;20198;-78
2021/12/23 10:10:44;;;;;;;4.85;3.00;;;4.60;99.90;;;;;;5052362;28;20240;-80
2021/12/23 10:30:22;;;;;;;4.07;2.10;;;5.30;99.90;;;;;;5053248;28;20212;-79
2021/12/23 10:33:13;;;;;;;4.35;2.55;;;5.30;99.90;;;;;;5055969;28;20218;-79
2021/12/23 10:38:29;;;;;;;3.67;2.47;;;5.70;99.90;;;;;;5029583;28;20489;-76
2021/12/23 10:41:00;;;;;;;3.72;2.60;;;5.40;99.90;;;;;;5054959;28;20217;-78
2021/12/23 10:43:32;;;;;;;6.43;3.42;;;5.40;99.90;;;;;;5057982;28;20691;-78
2021/12/23 10:46:03;;;;;;;5.63;3.03;;;5.70;99.90;;;;;;5042172;28;20262;-78
2021/12/23 10:48:34;;;;;;;4.10;2.53;;;5.40;99.90;;;;;;5067203;28;20211;-80
2021/12/23 10:51:07;;;;;;;7.47;3.95;;;5.50;99.90;;;;;;5062004;28;20249;-79
2021/12/23 10:59:12;;;;;;;7.95;3.90;;;5.80;99.90;;;;;;5058342;28;20212;-78
2021/12/23 11:02:02;;;;;;;9.60;5.00;;;5.60;99.90;;;;;;5037507;28;20251;-80
2021/12/23 11:04:37;;;;;;;7.15;4.18;;;5.60;99.90;;;;;;5042640;28;20818;-78
2021/12/23 11:07:17;;;;;;;5.25;4.07;;;5.40;99.90;;;;;;5060282;28;21043;-79
2021/12/23 11:10:08;;;;;;;7.75;3.65;;;5.40;99.90;;;;;;5075932;28;20201;-79
2021/12/23 11:38:29;;;;;;;4.03;2.58;;;5.40;99.90;;;;;;5042838;28;20205;-78
2021/12/23 11:41:05;;;;;;;4.75;2.58;;;5.50;99.90;;;;;;5061811;28;20736;-79
2021/12/23 11:46:17;;;;;;;6.35;3.88;;;5.50;99.90;;;;;;5054644;28;20228;-79
2021/12/23 11:48:47;;;;;;;4.90;3.10;;;5.70;99.90;;;;;;5060568;28;20586;-79
2021/12/23 11:51:22;;;;;;;4.63;2.40;;;5.70;99.90;;;;;;5063600;28;20727;-78
2021/12/23 11:53:50;;;;;;;2.92;2.20;;;5.70;99.90;;;;;;5058266;28;20689;-77
2021/12/23 11:56:21;;;;;;;3.40;2.58;;;5.70;99.90;;;;;;5054469;28;20285;-77
2021/12/23 11:58:50;;;;;;;6.70;3.23;;;5.70;99.90;;;;;;5041485;28;20230;-78
2021/12/23 12:01:21;;;;;;;5.40;2.67;;;5.80;99.90;;;;;;5061820;28;20479;-78
2021/12/23 12:03:59;;;;;;;4.60;2.70;;;5.70;99.90;;;;;;5040897;28;20287;-78
2021/12/23 12:06:31;;;;;;;3.67;2.35;;;5.70;99.90;;;;;;5060898;28;20235;-77
2021/12/23 12:09:12;;;;;;;3.67;2.40;;;5.80;99.90;;;;;;5054968;28;20582;-79
2021/12/23 12:11:48;;;;;;;7.70;3.50;;;5.80;99.90;;;;;;5045730;28;20220;-79
2021/12/23 12:14:42;;;;;;;2.50;1.67;;;5.90;99.90;;;;;;5058262;28;20275;-79
2021/12/23 12:17:44;;;;;;;3.30;2.25;;;5.90;99.90;;;;;;5041398;28;20229;-78
2021/12/23 12:20:36;;;;;;;3.00;1.70;;;6.00;99.90;;;;;;4986542;28;20710;-79
2021/12/23 12:23:08;;;;;;;4.00;2.13;;;6.00;99.90;;;;;;4974335;28;20206;-78
2021/12/23 12:25:56;;;;;;;4.63;2.42;;;6.10;99.90;;;;;;5025786;28;20979;-77
2021/12/23 12:28:29;;;;;;;4.97;2.10;;;6.10;99.90;;;;;;5060711;28;20202;-78
2021/12/23 12:31:00;;;;;;;1.48;1.30;;;6.10;99.90;;;;;;5059732;28;20212;-77
2021/12/23 12:33:54;;;;;;;4.28;2.30;;;6.00;99.90;;;;;;5060794;28;20686;-79
2021/12/23 12:36:25;;;;;;;4.07;1.90;;;6.10;99.90;;;;;;5055041;28;20762;-78
2021/12/23 12:38:57;;;;;;;3.63;2.05;;;6.10;99.90;;;;;;5061156;28;20211;-78
2021/12/23 12:41:31;;;;;;;3.38;2.30;;;6.10;99.90;;;;;;5057253;28;20316;-78
2021/12/23 12:44:08;;;;;;;4.28;2.80;;;6.10;99.90;;;;;;5061049;28;20281;-77
2021/12/23 12:47:12;;;;;;;6.07;3.33;;;6.20;99.90;;;;;;5037306;28;20220;-82
2021/12/23 12:49:44;;;;;;;4.50;2.75;;;6.30;99.90;;;;;;5031143;28;20216;-80
2021/12/23 12:52:19;;;;;;;2.53;2.08;;;6.40;99.90;;;;;;5052535;28;20302;-80
2021/12/23 12:54:55;;;;;;;4.75;2.42;;;6.50;99.90;;;;;;5048686;28;20671;-80
2021/12/23 12:57:30;;;;;;;4.82;2.90;;;6.40;99.90;;;;;;5048645;28;20296;-79
2021/12/23 13:00:21;;;;;;;5.28;3.70;;;6.20;99.90;;;;;;5038083;28;20544;-80
2021/12/23 13:02:52;;;;;;;6.95;3.00;;;6.10;99.90;;;;;;5052892;28;20236;-77
2021/12/23 13:05:28;;;;;;;3.37;2.47;;;6.10;99.90;;;;;;5034327;28;20562;-79
2021/12/23 13:07:58;;;;;;;4.25;2.75;;;6.20;99.90;;;;;;5054427;28;20469;-78
2021/12/23 13:10:32;;;;;;;3.65;2.75;;;6.20;99.90;;;;;;5052572;28;20225;-79
2021/12/23 13:13:04;;;;;;;6.97;3.75;;;6.10;99.90;;;;;;5060260;28;20207;-79
2021/12/23 13:15:36;;;;;;;5.05;3.25;;;6.10;99.90;;;;;;5040527;28;20208;-81
2021/12/23 13:18:08;;;;;;;5.85;3.50;;;6.20;99.90;;;;;;5060293;28;20212;-82
2021/12/23 13:20:44;;;;;;;3.70;2.90;;;6.40;99.90;;;;;;5059159;28;20262;-83
2021/12/23 13:23:16;;;;;;;4.40;3.42;;;6.30;99.90;;;;;;5060615;28;20212;-82
2021/12/23 13:25:57;;;;;;;4.30;2.97;;;6.20;99.90;;;;;;5058230;28;20220;-81
2021/12/23 13:28:34;;;;;;;9.02;3.35;;;6.20;99.90;;;;;;5050108;28;20288;-83
2021/12/23 13:31:08;;;;;;;4.72;2.97;;;6.20;99.90;;;;;;5055631;28;20243;-82
2021/12/23 13:33:45;;;;;;;6.43;3.25;;;6.20;99.90;;;;;;5060440;28;20212;-80
2021/12/23 13:36:22;;;;;;;4.10;2.92;;;6.20;99.90;;;;;;5053591;28;20211;-81
2021/12/23 13:38:52;;;;;;;8.50;4.10;;;6.40;99.90;;;;;;5059228;28;20961;-82
2021/12/23 13:41:25;;;;;;;8.43;3.70;;;6.30;99.90;;;;;;5064102;28;20466;-83
2021/12/23 13:43:56;;;;;;;4.80;3.10;;;6.30;99.90;;;;;;5061242;28;20211;-82
2021/12/23 13:46:28;;;;;;;7.78;3.10;;;6.30;99.90;;;;;;5060924;28;20619;-82
2021/12/23 13:49:04;;;;;;;4.70;3.00;;;6.20;99.90;;;;;;5059230;28;20207;-80
2021/12/23 13:51:36;;;;;;;8.13;3.83;;;6.30;99.90;;;;;;5041374;28;20231;-80
2021/12/23 13:54:13;;;;;;;5.30;3.78;;;6.30;99.90;;;;;;5059331;28;20490;-81
2021/12/23 13:56:45;;;;;;;4.50;2.63;;;6.20;99.90;;;;;;5047477;28;20475;-82
2021/12/23 13:59:17;;;;;;;6.85;3.55;;;6.30;99.90;;;;;;5069113;28;20516;-84
2021/12/23 14:01:56;;;;;;;5.60;2.73;;;6.50;99.90;;;;;;5041698;28;20270;-82
2021/12/23 14:04:30;;;;;;;4.60;3.42;;;6.40;99.90;;;;;;5061252;28;20454;-81
2021/12/23 14:06:59;;;;;;;5.70;3.40;;;6.40;99.90;;;;;;5051709;28;20315;-83